Time;durP1;ratioP1;P1;durP2;ratioP2;P2;SDS_P1;SDS_P2;PMS_P1;PMS_P2;Temp;Humidity;BMP_temperature;BMP_pressure;BME280_temperature;BME280_humidity;BME280_pressure;Samples;Min_cycle;Max_cycle;Signal;HPM_P1;HPM_P2
2023/01/25 00:01:17;;;;;;;21.33;16.27;;;2.40;1.00;;;;;;6259071;28;20637;-53
2023/01/25 00:04:21;;;;;;;23.40;16.60;;;2.60;1.00;;;;;;6262277;28;20249;-55
2023/01/25 00:07:25;;;;;;;21.17;17.10;;;2.30;1.00;;;;;;6257258;28;20234;-56
2023/01/25 00:10:28;;;;;;;23.67;16.77;;;2.60;1.00;;;;;;6258271;28;20616;-55
2023/01/25 00:13:31;;;;;;;21.07;17.17;;;2.40;1.00;;;;;;6249168;28;20234;-55
2023/01/25 00:16:36;;;;;;;21.40;16.13;;;2.50;1.00;;;;;;6258414;28;20237;-54
2023/01/25 00:19:39;;;;;;;20.20;16.70;;;2.60;1.00;;;;;;6258481;28;20325;-54
2023/01/25 00:22:42;;;;;;;20.67;16.43;;;2.60;1.00;;;;;;6234722;28;20762;-55
2023/01/25 00:25:45;;;;;;;21.17;16.87;;;2.40;1.00;;;;;;6233527;28;20273;-56
2023/01/25 00:28:49;;;;;;;21.07;16.43;;;2.30;1.00;;;;;;6233872;28;20621;-56
2023/01/25 00:32:02;;;;;;;20.13;16.80;;;2.20;1.00;;;;;;6234762;28;20393;-56
2023/01/25 00:35:10;;;;;;;19.50;15.47;;;2.60;1.00;;;;;;6263137;28;20226;-56
2023/01/25 00:38:28;;;;;;;21.13;17.00;;;2.20;1.00;;;;;;6258354;28;20268;-55
2023/01/25 00:41:31;;;;;;;22.47;17.60;;;2.50;1.00;;;;;;6257113;28;20234;-55
2023/01/25 00:44:34;;;;;;;22.00;17.33;;;2.20;1.00;;;;;;6253582;28;21840;-56
2023/01/25 00:47:38;;;;;;;20.50;17.80;;;2.50;1.00;;;;;;6250410;28;20243;-55
2023/01/25 00:50:41;;;;;;;18.23;16.27;;;2.40;1.00;;;;;;6233485;28;20258;-56
2023/01/25 00:53:44;;;;;;;26.93;16.87;;;2.60;1.00;;;;;;6250739;28;20303;-54
2023/01/25 00:56:47;;;;;;;21.77;17.07;;;2.20;1.00;;;;;;6235037;28;20234;-55
2023/01/25 00:59:50;;;;;;;20.57;16.50;;;2.40;1.00;;;;;;6239068;28;20282;-56
2023/01/25 01:02:55;;;;;;;23.67;18.23;;;2.30;1.00;;;;;;6267414;28;20259;-56
2023/01/25 01:06:16;;;;;;;19.50;17.37;;;2.40;1.00;;;;;;6257138;28;20239;-54
2023/01/25 01:09:20;;;;;;;17.90;16.00;;;2.50;1.00;;;;;;6259865;28;20222;-55
2023/01/25 01:12:23;;;;;;;21.77;18.03;;;2.50;1.00;;;;;;6245701;28;20744;-55
2023/01/25 01:19:53;;;;;;;20.07;16.63;;;2.40;1.00;;;;;;6243698;28;20238;-54
2023/01/25 01:22:56;;;;;;;21.97;17.97;;;2.30;1.00;;;;;;6238493;28;20231;-54
2023/01/25 01:26:00;;;;;;;21.07;16.83;;;2.50;1.00;;;;;;6237876;28;20250;-55
2023/01/25 01:29:03;;;;;;;19.73;17.17;;;2.50;1.00;;;;;;6248100;28;20421;-55
2023/01/25 01:32:06;;;;;;;21.90;16.90;;;2.70;1.00;;;;;;6261448;28;20464;-54
2023/01/25 01:35:11;;;;;;;19.83;16.97;;;2.80;1.00;;;;;;6267102;28;20234;-56
2023/01/25 01:38:14;;;;;;;20.60;16.40;;;2.50;1.00;;;;;;6252330;28;20226;-55
2023/01/25 01:41:18;;;;;;;20.37;16.37;;;2.70;1.00;;;;;;6261910;28;20234;-55
2023/01/25 01:44:37;;;;;;;20.80;16.90;;;2.70;1.00;;;;;;6250112;28;20235;-55
2023/01/25 01:47:44;;;;;;;21.77;17.23;;;2.80;1.00;;;;;;6237333;28;20374;-54
2023/01/25 01:50:53;;;;;;;22.57;16.87;;;2.90;1.00;;;;;;6236797;28;20258;-54
2023/01/25 01:54:00;;;;;;;21.93;16.70;;;2.50;1.00;;;;;;6238231;28;20243;-56
2023/01/25 01:57:07;;;;;;;21.07;16.20;;;2.50;1.00;;;;;;6237165;28;20323;-55
2023/01/25 02:00:14;;;;;;;21.37;17.20;;;2.80;1.00;;;;;;6226445;28;20237;-56
2023/01/25 02:03:17;;;;;;;23.90;16.00;;;2.60;1.00;;;;;;6250313;28;20255;-57
2023/01/25 02:06:28;;;;;;;21.73;16.90;;;2.70;1.00;;;;;;6248953;28;20230;-55
2023/01/25 02:09:34;;;;;;;18.67;16.00;;;2.50;1.00;;;;;;6258994;28;20623;-56
2023/01/25 02:12:38;;;;;;;22.40;17.50;;;2.60;1.00;;;;;;6261602;28;20500;-55
2023/01/25 02:15:44;;;;;;;20.97;16.60;;;2.70;1.00;;;;;;6253282;28;20400;-55
2023/01/25 02:18:48;;;;;;;20.53;16.27;;;2.60;1.00;;;;;;6261389;28;20373;-54
2023/01/25 02:21:54;;;;;;;20.33;17.07;;;2.60;1.00;;;;;;6256753;28;20324;-55
2023/01/25 02:25:04;;;;;;;23.07;18.10;;;2.50;1.00;;;;;;6240894;28;20262;-55
2023/01/25 02:28:14;;;;;;;19.93;17.77;;;2.80;1.00;;;;;;6238005;28;20288;-56
2023/01/25 02:31:17;;;;;;;20.23;17.07;;;2.90;1.00;;;;;;6237662;28;20813;-55
2023/01/25 02:34:21;;;;;;;19.37;16.77;;;2.90;1.00;;;;;;6260377;28;20330;-55
2023/01/25 02:37:24;;;;;;;20.90;16.43;;;2.80;1.00;;;;;;6261340;28;20751;-54
2023/01/25 02:40:31;;;;;;;22.67;17.27;;;3.00;1.00;;;;;;6261855;28;20586;-55
2023/01/25 02:43:35;;;;;;;20.57;16.30;;;2.60;1.00;;;;;;6239758;28;20834;-55
2023/01/25 02:46:40;;;;;;;17.93;16.00;;;2.60;1.00;;;;;;6236287;28;20258;-56
2023/01/25 02:49:43;;;;;;;19.20;16.10;;;2.70;1.00;;;;;;6236594;28;20655;-55
2023/01/25 02:52:46;;;;;;;19.40;16.70;;;2.80;1.00;;;;;;6236562;28;20241;-54
2023/01/25 02:55:50;;;;;;;20.63;15.93;;;2.60;1.00;;;;;;6235918;28;20238;-54
2023/01/25 02:58:53;;;;;;;22.50;17.00;;;2.80;1.00;;;;;;6236471;28;20242;-56
2023/01/25 03:01:56;;;;;;;16.40;14.53;;;2.60;1.00;;;;;;6238577;28;20237;-56
2023/01/25 03:05:00;;;;;;;17.90;15.57;;;2.60;1.00;;;;;;6266042;28;20291;-55
2023/01/25 03:08:03;;;;;;;20.80;17.03;;;2.90;1.00;;;;;;6259754;28;20233;-55
2023/01/25 03:11:07;;;;;;;22.30;17.30;;;2.90;1.00;;;;;;6257990;28;20222;-56
2023/01/25 03:14:10;;;;;;;18.27;15.83;;;2.80;1.00;;;;;;6247660;28;20234;-53
2023/01/25 03:17:13;;;;;;;20.60;16.80;;;2.70;1.00;;;;;;6259693;28;20730;-54
2023/01/25 03:20:17;;;;;;;21.67;16.10;;;2.70;1.00;;;;;;6242642;28;20240;-55
2023/01/25 03:23:20;;;;;;;20.70;17.23;;;2.80;1.00;;;;;;6251622;28;20753;-55
2023/01/25 03:26:26;;;;;;;21.97;19.33;;;2.50;1.00;;;;;;6244992;28;20272;-54
2023/01/25 03:29:29;;;;;;;21.83;17.57;;;2.90;1.00;;;;;;6234932;28;20645;-55
2023/01/25 03:32:32;;;;;;;24.07;18.37;;;2.90;1.00;;;;;;6245392;28;20641;-54
2023/01/25 03:35:35;;;;;;;23.47;18.00;;;2.50;1.00;;;;;;6254006;28;20230;-55
2023/01/25 03:38:38;;;;;;;25.87;18.47;;;2.90;1.00;;;;;;6259050;28;20246;-55
2023/01/25 03:41:42;;;;;;;24.53;18.77;;;2.70;1.00;;;;;;6235225;28;20288;-55
2023/01/25 03:44:45;;;;;;;24.83;19.57;;;2.80;1.00;;;;;;6234708;28;20238;-56
2023/01/25 03:47:48;;;;;;;26.23;20.40;;;2.70;1.00;;;;;;6235406;28;20249;-56
2023/01/25 03:50:52;;;;;;;19.87;17.60;;;2.60;1.00;;;;;;6235067;28;20629;-55
2023/01/25 03:53:55;;;;;;;22.63;18.13;;;2.90;1.00;;;;;;6235174;28;20246;-54
2023/01/25 03:56:59;;;;;;;23.83;18.57;;;3.00;1.00;;;;;;6234739;28;20246;-54
2023/01/25 04:00:02;;;;;;;24.07;18.50;;;2.90;1.00;;;;;;6234498;28;20481;-55
2023/01/25 04:03:05;;;;;;;22.67;18.07;;;2.90;1.00;;;;;;6251371;28;20604;-56
2023/01/25 04:06:09;;;;;;;18.07;15.33;;;3.00;1.00;;;;;;6248362;28;20469;-54
2023/01/25 04:09:13;;;;;;;17.60;15.23;;;2.70;1.00;;;;;;6252154;28;20245;-56
2023/01/25 04:12:17;;;;;;;16.47;14.50;;;2.80;1.00;;;;;;6259307;28;20248;-56
2023/01/25 04:15:20;;;;;;;18.80;14.50;;;3.00;1.00;;;;;;6247463;28;20230;-55
2023/01/25 04:18:23;;;;;;;20.87;15.43;;;3.00;1.00;;;;;;6235819;28;20242;-54
2023/01/25 04:21:27;;;;;;;18.80;15.50;;;2.80;1.00;;;;;;6234519;28;20617;-54
2023/01/25 04:24:30;;;;;;;17.23;15.27;;;3.00;1.00;;;;;;6234471;28;20226;-54
2023/01/25 04:27:34;;;;;;;15.07;13.47;;;2.60;1.00;;;;;;6234050;28;20396;-56
2023/01/25 04:30:37;;;;;;;16.37;13.80;;;2.70;1.00;;;;;;6254123;28;20597;-56
2023/01/25 04:33:40;;;;;;;15.03;13.43;;;2.80;1.00;;;;;;6234909;28;20246;-54
2023/01/25 04:36:44;;;;;;;16.37;13.20;;;2.70;1.00;;;;;;6244906;28;20794;-55
2023/01/25 04:39:47;;;;;;;15.60;14.00;;;3.00;1.00;;;;;;6252029;28;20758;-56
2023/01/25 04:42:51;;;;;;;19.03;14.73;;;2.90;1.00;;;;;;6246634;28;20262;-56
2023/01/25 04:45:54;;;;;;;16.00;13.73;;;2.50;1.00;;;;;;6250334;28;20660;-55
2023/01/25 04:48:57;;;;;;;15.57;13.53;;;2.60;1.00;;;;;;6270500;28;20249;-55
2023/01/25 04:52:00;;;;;;;14.10;12.60;;;2.80;1.00;;;;;;6252097;28;20241;-56
2023/01/25 04:55:03;;;;;;;14.27;12.57;;;2.80;1.00;;;;;;6254052;28;20229;-56
2023/01/25 04:58:08;;;;;;;17.27;14.50;;;2.40;1.00;;;;;;6263553;28;20230;-56
2023/01/25 05:01:11;;;;;;;16.73;13.87;;;2.90;1.00;;;;;;6257956;28;20237;-56
2023/01/25 05:04:14;;;;;;;19.00;13.80;;;2.70;1.00;;;;;;6246922;28;20708;-56
2023/01/25 05:07:17;;;;;;;16.67;12.70;;;2.80;1.00;;;;;;6247132;28;20233;-55
2023/01/25 05:10:21;;;;;;;14.43;12.93;;;2.60;1.00;;;;;;6264192;28;20233;-55
2023/01/25 05:13:25;;;;;;;16.63;13.97;;;2.70;1.00;;;;;;6255405;28;20245;-54
2023/01/25 05:16:28;;;;;;;14.40;12.90;;;2.80;1.00;;;;;;6256642;28;20758;-55
2023/01/25 05:19:32;;;;;;;13.83;12.43;;;2.90;1.00;;;;;;6249451;28;20476;-56
2023/01/25 05:22:35;;;;;;;15.90;14.20;;;2.90;1.00;;;;;;6250180;28;20231;-55
2023/01/25 05:28:59;;;;;;;15.73;14.13;;;2.40;1.00;;;;;;6249940;28;20235;-56
2023/01/25 05:32:03;;;;;;;16.67;14.93;;;2.70;1.00;;;;;;6249844;28;20253;-54
2023/01/25 05:35:07;;;;;;;23.27;16.20;;;2.70;1.00;;;;;;6257798;28;20250;-56
2023/01/25 05:38:10;;;;;;;19.30;15.63;;;2.50;1.00;;;;;;6252341;28;20584;-55
2023/01/25 05:41:13;;;;;;;17.77;14.57;;;2.40;1.00;;;;;;6257099;28;20233;-56
2023/01/25 05:44:18;;;;;;;17.40;13.83;;;2.60;1.00;;;;;;6263652;28;20742;-55
2023/01/25 05:47:21;;;;;;;15.90;14.20;;;2.70;1.00;;;;;;6266610;28;20233;-59
2023/01/25 05:50:25;;;;;;;16.07;14.13;;;2.50;1.00;;;;;;6245069;28;20241;-56
2023/01/25 05:53:29;;;;;;;17.40;14.73;;;2.70;1.00;;;;;;6265530;28;20234;-56
2023/01/25 05:56:32;;;;;;;18.53;14.23;;;2.70;1.00;;;;;;6257780;28;20234;-54
2023/01/25 05:59:37;;;;;;;16.83;14.37;;;2.40;1.00;;;;;;6262084;28;20246;-53
2023/01/25 06:02:40;;;;;;;17.87;13.50;;;2.70;1.00;;;;;;6269863;28;20244;-56
2023/01/25 06:05:43;;;;;;;17.60;14.33;;;2.70;1.00;;;;;;6257159;28;20759;-55
2023/01/25 06:08:46;;;;;;;15.90;14.00;;;2.60;1.00;;;;;;6255095;28;20248;-55
2023/01/25 06:11:49;;;;;;;14.30;12.80;;;2.20;1.00;;;;;;6261773;28;20237;-54
2023/01/25 06:14:54;;;;;;;13.60;12.13;;;2.20;1.00;;;;;;6251255;28;20735;-54
2023/01/25 06:17:57;;;;;;;13.70;12.40;;;2.70;1.00;;;;;;6258117;28;20233;-55
2023/01/25 06:21:01;;;;;;;18.70;13.63;;;2.70;1.00;;;;;;6239412;28;20876;-55
2023/01/25 06:24:05;;;;;;;15.40;12.90;;;2.60;1.00;;;;;;6238846;28;20238;-55
2023/01/25 06:27:09;;;;;;;14.03;12.37;;;2.40;1.00;;;;;;6225477;28;20324;-56
2023/01/25 06:30:14;;;;;;;13.93;12.53;;;2.40;1.00;;;;;;6233968;28;20242;-54
2023/01/25 06:33:17;;;;;;;13.80;12.50;;;2.70;1.00;;;;;;6237625;28;20239;-59
2023/01/25 06:36:22;;;;;;;16.07;14.03;;;2.80;1.00;;;;;;6225730;28;20814;-56
2023/01/25 06:39:25;;;;;;;14.13;12.73;;;2.40;1.00;;;;;;6218715;28;20480;-59
2023/01/25 06:42:28;;;;;;;18.23;14.23;;;2.30;1.00;;;;;;6221868;28;20403;-55
2023/01/25 06:45:32;;;;;;;14.77;13.23;;;2.20;1.00;;;;;;6217264;28;20864;-54
2023/01/25 06:48:36;;;;;;;16.90;14.33;;;2.60;1.00;;;;;;6228815;28;20340;-55
2023/01/25 06:51:39;;;;;;;19.97;15.50;;;2.70;1.00;;;;;;6228999;28;20573;-55
2023/01/25 06:54:42;;;;;;;20.00;15.00;;;2.30;1.00;;;;;;6209990;28;20242;-55
2023/01/25 06:57:45;;;;;;;16.30;14.57;;;2.30;1.00;;;;;;6228850;28;20238;-55
2023/01/25 07:00:49;;;;;;;18.57;14.67;;;2.40;1.00;;;;;;6211431;28;20980;-54
2023/01/25 07:03:54;;;;;;;19.90;16.23;;;2.40;1.00;;;;;;6224414;28;20258;-56
2023/01/25 07:06:57;;;;;;;19.00;15.67;;;2.50;1.00;;;;;;6237045;28;20231;-54
2023/01/25 07:10:01;;;;;;;21.93;15.63;;;2.50;1.00;;;;;;6251652;28;20250;-56
2023/01/25 07:13:04;;;;;;;22.07;16.30;;;2.70;1.00;;;;;;6252248;28;20226;-56
2023/01/25 07:16:13;;;;;;;20.40;15.83;;;2.60;1.00;;;;;;6254881;28;20631;-55
2023/01/25 07:19:16;;;;;;;22.60;17.13;;;2.20;1.00;;;;;;6252868;28;20234;-54
2023/01/25 07:22:19;;;;;;;24.13;18.57;;;2.40;1.00;;;;;;6259150;28;20584;-55
2023/01/25 07:25:22;;;;;;;20.87;16.47;;;2.40;1.00;;;;;;6228535;28;20683;-55
2023/01/25 07:28:25;;;;;;;21.57;17.10;;;2.20;1.00;;;;;;6238645;28;20249;-54
2023/01/25 07:31:30;;;;;;;26.90;19.77;;;2.50;1.00;;;;;;6256147;28;20232;-54
2023/01/25 07:34:33;;;;;;;28.97;19.20;;;2.10;1.00;;;;;;6256715;28;20234;-54
2023/01/25 07:37:36;;;;;;;27.73;19.83;;;2.30;1.00;;;;;;6255064;28;20240;-56
2023/01/25 07:40:39;;;;;;;29.30;19.53;;;2.30;1.00;;;;;;6250446;28;20242;-55
2023/01/25 07:43:43;;;;;;;24.77;19.37;;;2.40;1.00;;;;;;6257791;28;20484;-54
2023/01/25 07:46:47;;;;;;;29.93;19.27;;;2.60;1.00;;;;;;6259615;28;20615;-56
2023/01/25 07:49:50;;;;;;;25.90;20.10;;;2.30;1.00;;;;;;6253601;28;20250;-54
2023/01/25 07:52:53;;;;;;;28.43;20.90;;;2.20;1.00;;;;;;6257902;28;20380;-53
2023/01/25 07:55:58;;;;;;;32.43;21.87;;;2.20;1.00;;;;;;6249737;28;20234;-56
2023/01/25 07:59:02;;;;;;;35.53;22.40;;;2.40;1.00;;;;;;6254268;28;20245;-54
2023/01/25 08:02:08;;;;;;;37.20;24.07;;;2.50;1.00;;;;;;6259020;28;20237;-55
2023/01/25 08:05:11;;;;;;;36.50;22.77;;;2.20;1.00;;;;;;6262211;28;20655;-56
2023/01/25 08:08:15;;;;;;;34.10;23.17;;;2.50;1.00;;;;;;6256464;28;20730;-54
2023/01/25 08:11:21;;;;;;;33.57;22.57;;;2.30;1.00;;;;;;6258592;28;20853;-55
2023/01/25 08:14:24;;;;;;;34.13;22.73;;;2.20;1.00;;;;;;6253673;28;20511;-56
2023/01/25 08:17:32;;;;;;;31.70;21.93;;;2.70;1.00;;;;;;6252409;28;20238;-54
2023/01/25 08:20:36;;;;;;;38.07;23.83;;;2.40;1.00;;;;;;6258792;28;20545;-54
2023/01/25 08:23:39;;;;;;;38.33;23.10;;;2.50;1.00;;;;;;6256041;28;20299;-54
2023/01/25 08:26:43;;;;;;;41.93;26.20;;;2.20;1.00;;;;;;6255730;28;20632;-54
2023/01/25 08:29:49;;;;;;;41.27;25.40;;;2.40;1.00;;;;;;6251076;28;20325;-54
2023/01/25 08:32:53;;;;;;;35.47;23.60;;;2.50;1.00;;;;;;6259241;28;20321;-54
2023/01/25 08:35:57;;;;;;;30.77;21.53;;;2.00;1.00;;;;;;6251055;28;20483;-54
2023/01/25 08:39:01;;;;;;;29.57;20.77;;;2.10;1.00;;;;;;6255317;28;20611;-55
2023/01/25 08:42:06;;;;;;;28.00;20.57;;;2.30;1.00;;;;;;6257914;28;20237;-56
2023/01/25 08:45:10;;;;;;;30.73;21.03;;;2.20;1.00;;;;;;6254377;28;20228;-55
2023/01/25 08:48:15;;;;;;;39.27;24.07;;;2.10;1.00;;;;;;6257040;28;20317;-55
2023/01/25 08:51:18;;;;;;;31.97;21.47;;;2.40;1.00;;;;;;6260229;28;20281;-54
2023/01/25 08:54:23;;;;;;;35.27;23.97;;;1.90;1.00;;;;;;6257672;28;20233;-55
2023/01/25 08:57:26;;;;;;;40.87;24.90;;;1.90;1.00;;;;;;6252100;28;20249;-54
2023/01/25 09:00:29;;;;;;;36.13;22.43;;;2.30;1.00;;;;;;6252286;28;20242;-54
2023/01/25 09:03:36;;;;;;;28.90;20.70;;;2.10;1.00;;;;;;6260856;28;20237;-54
2023/01/25 09:06:39;;;;;;;30.23;19.73;;;2.20;1.00;;;;;;6257070;28;20500;-55
2023/01/25 09:09:42;;;;;;;23.70;18.13;;;2.50;1.00;;;;;;6262006;28;20253;-54
2023/01/25 09:12:45;;;;;;;29.47;19.87;;;2.20;1.00;;;;;;6272820;28;20222;-54
2023/01/25 09:15:48;;;;;;;27.57;19.37;;;2.20;1.00;;;;;;6249355;28;20242;-54
2023/01/25 09:18:54;;;;;;;29.53;20.50;;;2.40;1.00;;;;;;6257225;28;20233;-55
2023/01/25 09:21:57;;;;;;;29.33;21.37;;;2.20;1.00;;;;;;6259292;28;20226;-55
2023/01/25 09:25:00;;;;;;;25.13;19.20;;;2.30;1.00;;;;;;6260995;28;20233;-56
2023/01/25 09:28:10;;;;;;;24.53;19.47;;;2.00;1.00;;;;;;6265335;28;20328;-54
2023/01/25 09:31:13;;;;;;;23.67;17.70;;;2.20;1.00;;;;;;6259089;28;20596;-56
2023/01/25 09:34:25;;;;;;;27.07;18.73;;;2.30;1.00;;;;;;6263548;28;20320;-54
2023/01/25 09:37:28;;;;;;;21.70;17.00;;;2.00;1.00;;;;;;6261131;28;20261;-54
2023/01/25 09:40:38;;;;;;;25.43;18.33;;;2.10;1.00;;;;;;6249030;28;20239;-55
2023/01/25 09:44:02;;;;;;;26.67;18.73;;;1.80;1.00;;;;;;6255421;28;20233;-55
2023/01/25 09:47:26;;;;;;;27.60;18.93;;;2.20;1.00;;;;;;6268563;28;20476;-55
2023/01/25 09:50:41;;;;;;;28.20;19.00;;;2.20;1.00;;;;;;6257712;28;20250;-55
2023/01/25 09:53:49;;;;;;;29.83;20.17;;;2.10;1.00;;;;;;6255788;28;20235;-54
2023/01/25 09:56:52;;;;;;;24.70;18.80;;;2.00;1.00;;;;;;6246742;28;20453;-54
2023/01/25 09:59:57;;;;;;;29.77;19.60;;;2.20;1.00;;;;;;6254271;28;20238;-54
2023/01/25 10:03:11;;;;;;;28.27;19.23;;;2.20;1.00;;;;;;6263485;28;20234;-55
2023/01/25 10:06:17;;;;;;;26.53;19.80;;;2.40;1.00;;;;;;6259202;28;20311;-54
2023/01/25 10:09:29;;;;;;;30.90;20.20;;;2.10;1.00;;;;;;6261027;28;20249;-55
2023/01/25 10:12:36;;;;;;;26.43;18.83;;;2.00;1.00;;;;;;6248546;28;20604;-54
2023/01/25 10:15:44;;;;;;;26.00;18.37;;;2.00;1.00;;;;;;6254820;28;20234;-55
2023/01/25 10:18:56;;;;;;;26.67;17.73;;;2.00;1.00;;;;;;6263276;28;20237;-54
2023/01/25 10:22:05;;;;;;;26.70;18.73;;;2.00;1.00;;;;;;6256323;28;20381;-55
2023/01/25 10:25:31;;;;;;;26.83;19.53;;;2.10;1.00;;;;;;6259694;28;20226;-54
2023/01/25 10:28:44;;;;;;;27.87;19.23;;;2.00;1.00;;;;;;6255675;28;20703;-54
2023/01/25 10:31:52;;;;;;;27.00;18.37;;;1.90;1.00;;;;;;6261416;28;20686;-55
2023/01/25 10:34:57;;;;;;;30.53;20.47;;;2.20;1.00;;;;;;6254353;28;20568;-54
2023/01/25 10:38:06;;;;;;;31.43;20.40;;;2.20;1.00;;;;;;6255375;28;20264;-54
2023/01/25 10:41:16;;;;;;;28.57;19.07;;;1.90;1.00;;;;;;6262359;28;20234;-55
2023/01/25 10:44:23;;;;;;;31.33;18.90;;;2.20;1.00;;;;;;6255042;28;20785;-55
2023/01/25 10:47:29;;;;;;;25.13;19.40;;;2.00;1.00;;;;;;6254969;28;20241;-54
2023/01/25 10:50:53;;;;;;;31.60;20.07;;;1.90;1.00;;;;;;6267265;28;21033;-54
2023/01/25 10:54:02;;;;;;;30.60;21.00;;;1.70;1.00;;;;;;6252476;28;20409;-54
2023/01/25 10:57:07;;;;;;;29.97;20.53;;;1.80;1.00;;;;;;6258408;28;20233;-56
2023/01/25 11:00:24;;;;;;;34.37;21.23;;;2.00;1.00;;;;;;6262126;28;20321;-54
2023/01/25 11:03:36;;;;;;;33.67;21.80;;;1.90;1.00;;;;;;6258050;28;20806;-54
2023/01/25 11:06:48;;;;;;;31.03;21.37;;;1.80;1.00;;;;;;6245641;28;20419;-54
2023/01/25 11:09:53;;;;;;;31.97;19.83;;;2.10;1.00;;;;;;6252260;28;20246;-55
2023/01/25 11:13:22;;;;;;;27.60;19.60;;;1.80;1.00;;;;;;6254809;28;21171;-54
2023/01/25 11:16:31;;;;;;;32.23;19.63;;;1.80;1.00;;;;;;6246773;28;20226;-56
2023/01/25 11:19:36;;;;;;;32.87;20.20;;;1.70;1.00;;;;;;6253014;28;20234;-54
2023/01/25 11:22:49;;;;;;;29.60;19.60;;;1.80;1.00;;;;;;6258419;28;20317;-55
2023/01/25 11:25:53;;;;;;;30.40;19.93;;;1.70;1.00;;;;;;6249620;28;20222;-54
2023/01/25 11:29:11;;;;;;;36.27;20.97;;;1.70;1.00;;;;;;6265073;28;20715;-54
2023/01/25 11:32:22;;;;;;;32.20;20.90;;;1.80;1.00;;;;;;6260256;28;20242;-54
2023/01/25 11:35:32;;;;;;;39.73;22.57;;;1.70;1.00;;;;;;6257198;28;20242;-54
2023/01/25 11:38:37;;;;;;;34.27;21.60;;;1.80;1.00;;;;;;6254912;28;20245;-54
2023/01/25 11:41:58;;;;;;;33.73;21.67;;;1.70;1.00;;;;;;6257037;28;20242;-56
2023/01/25 11:45:30;;;;;;;33.13;22.60;;;1.80;1.00;;;;;;6258387;28;20614;-55
2023/01/25 11:48:55;;;;;;;35.23;22.93;;;1.80;1.00;;;;;;6250257;28;20242;-54
2023/01/25 11:52:15;;;;;;;35.63;22.30;;;1.80;1.00;;;;;;6248346;28;20241;-54
2023/01/25 11:55:26;;;;;;;36.70;22.53;;;1.70;1.00;;;;;;6257685;28;20233;-55
2023/01/25 11:58:46;;;;;;;38.73;22.97;;;1.80;1.00;;;;;;6253964;28;20860;-54
2023/01/25 12:02:03;;;;;;;34.27;21.63;;;1.80;1.00;;;;;;6263570;28;20683;-54
2023/01/25 12:05:22;;;;;;;38.37;23.67;;;2.00;1.00;;;;;;6253990;28;20269;-56
2023/01/25 12:08:44;;;;;;;41.03;24.77;;;2.10;1.00;;;;;;6256843;28;20261;-56
2023/01/25 12:12:09;;;;;;;42.63;25.23;;;1.90;1.00;;;;;;6245920;28;20326;-55
2023/01/25 12:15:35;;;;;;;40.10;25.47;;;2.20;1.00;;;;;;6254029;28;20222;-54
2023/01/25 12:19:02;;;;;;;39.10;22.27;;;1.80;1.00;;;;;;6257399;28;20750;-55
2023/01/25 12:22:29;;;;;;;37.47;22.07;;;1.90;1.00;;;;;;6256366;28;20387;-54
2023/01/25 12:25:45;;;;;;;35.33;21.90;;;1.90;1.00;;;;;;6260602;28;20456;-54
2023/01/25 12:28:51;;;;;;;38.70;23.50;;;1.90;1.00;;;;;;6248570;28;20238;-54
2023/01/25 12:32:00;;;;;;;36.57;22.30;;;2.20;1.00;;;;;;6261512;28;20237;-53
2023/01/25 12:35:20;;;;;;;34.30;20.60;;;2.00;1.00;;;;;;6258401;28;20234;-54
2023/01/25 12:38:29;;;;;;;35.13;22.03;;;1.80;1.00;;;;;;6255986;28;20380;-54
2023/01/25 12:41:39;;;;;;;38.47;22.90;;;1.80;1.00;;;;;;6258623;28;20402;-55
2023/01/25 12:44:47;;;;;;;41.90;24.57;;;1.90;1.00;;;;;;6253569;28;20388;-55
2023/01/25 12:47:56;;;;;;;39.27;23.50;;;1.80;1.00;;;;;;6256742;28;20237;-56
2023/01/25 12:51:00;;;;;;;46.83;26.50;;;1.90;1.00;;;;;;6256687;28;20238;-55
2023/01/25 12:54:14;;;;;;;44.30;26.00;;;1.80;1.00;;;;;;6253309;28;20384;-56
2023/01/25 12:57:24;;;;;;;47.60;25.57;;;1.70;1.00;;;;;;6264529;28;20233;-55
2023/01/25 13:00:37;;;;;;;44.73;26.07;;;1.90;1.00;;;;;;6266286;28;20318;-54
2023/01/25 13:03:56;;;;;;;42.67;24.47;;;1.80;1.00;;;;;;6259302;28;20253;-55
2023/01/25 13:07:07;;;;;;;42.83;23.90;;;1.80;1.00;;;;;;6262438;28;20245;-54
2023/01/25 13:10:20;;;;;;;40.93;25.67;;;1.80;1.00;;;;;;6254037;28;20221;-54
2023/01/25 13:13:25;;;;;;;45.40;24.80;;;1.70;1.00;;;;;;6264886;28;20275;-55
2023/01/25 13:16:41;;;;;;;43.60;26.33;;;1.80;1.00;;;;;;6266226;28;20237;-56
2023/01/25 13:19:46;;;;;;;37.80;24.70;;;1.80;1.00;;;;;;6262762;28;20272;-54
2023/01/25 13:22:57;;;;;;;38.70;24.57;;;1.80;1.00;;;;;;6258062;28;20295;-54
2023/01/25 13:26:38;;;;;;;38.40;25.37;;;1.90;1.00;;;;;;6259894;28;20754;-54
2023/01/25 13:29:45;;;;;;;42.37;25.57;;;2.10;1.00;;;;;;6263717;28;20730;-53
2023/01/25 13:33:01;;;;;;;33.47;21.23;;;2.00;1.00;;;;;;6273099;28;20237;-55
2023/01/25 13:36:44;;;;;;;37.33;21.87;;;1.90;1.00;;;;;;6260544;28;20229;-54
2023/01/25 13:39:48;;;;;;;30.43;20.43;;;1.70;1.00;;;;;;6265344;28;20278;-55
2023/01/25 13:43:00;;;;;;;32.77;20.90;;;1.70;1.00;;;;;;6254109;28;20238;-55
2023/01/25 13:46:06;;;;;;;31.77;21.30;;;1.70;1.00;;;;;;6260065;28;20405;-56
2023/01/25 13:49:22;;;;;;;29.43;22.13;;;1.70;1.00;;;;;;6266009;28;20242;-55
2023/01/25 13:52:29;;;;;;;31.47;20.87;;;1.80;1.00;;;;;;6261102;28;20246;-55
2023/01/25 13:55:39;;;;;;;31.83;21.23;;;1.60;1.00;;;;;;6271565;28;20233;-55
2023/01/25 13:58:46;;;;;;;28.53;20.00;;;1.70;1.00;;;;;;6270080;28;20630;-54
2023/01/25 14:01:50;;;;;;;30.63;19.67;;;1.70;1.00;;;;;;6264800;28;20242;-54
2023/01/25 14:04:54;;;;;;;32.10;20.80;;;1.70;1.00;;;;;;6265574;28;20256;-54
2023/01/25 14:07:58;;;;;;;36.37;20.30;;;1.40;1.00;;;;;;6263391;28;20242;-56
2023/01/25 14:11:01;;;;;;;31.90;20.90;;;1.60;1.00;;;;;;6257552;28;20242;-54
2023/01/25 14:14:18;;;;;;;37.77;20.70;;;1.60;1.00;;;;;;6264431;28;20262;-55
2023/01/25 14:17:24;;;;;;;30.03;21.23;;;1.50;1.00;;;;;;6258212;28;20629;-54
2023/01/25 14:20:27;;;;;;;33.73;21.37;;;1.70;1.00;;;;;;6254276;28;20707;-54
2023/01/25 14:23:33;;;;;;;35.33;21.07;;;1.50;1.00;;;;;;6260368;28;20629;-54
2023/01/25 14:26:37;;;;;;;37.33;21.50;;;1.30;1.00;;;;;;6250880;28;20272;-55
2023/01/25 14:29:41;;;;;;;36.80;21.40;;;1.70;1.00;;;;;;6260553;28;20458;-54
2023/01/25 14:32:45;;;;;;;37.30;22.00;;;1.70;1.00;;;;;;6264496;28;20260;-57
2023/01/25 14:35:49;;;;;;;31.27;20.30;;;1.90;1.00;;;;;;6254922;28;20238;-53
2023/01/25 14:39:00;;;;;;;29.53;19.30;;;2.00;1.00;;;;;;6265191;28;20242;-55
2023/01/25 14:42:07;;;;;;;30.10;18.23;;;1.60;1.00;;;;;;6272067;28;20498;-54
2023/01/25 14:45:13;;;;;;;29.90;19.80;;;1.60;1.00;;;;;;6260058;28;20229;-54
2023/01/25 14:48:39;;;;;;;33.13;20.67;;;1.40;1.00;;;;;;6260416;28;20233;-55
2023/01/25 14:51:45;;;;;;;29.93;19.03;;;1.30;1.00;;;;;;6259082;28;20533;-56
2023/01/25 14:54:52;;;;;;;32.77;20.77;;;1.50;1.00;;;;;;6247091;28;20429;-56
2023/01/25 14:57:59;;;;;;;35.47;21.27;;;1.60;1.00;;;;;;6261948;28;20734;-53
2023/01/25 15:01:02;;;;;;;34.30;21.37;;;1.60;1.00;;;;;;6258939;28;20762;-55
2023/01/25 15:04:11;;;;;;;37.57;22.10;;;1.40;1.00;;;;;;6255409;28;20684;-55
2023/01/25 15:07:40;;;;;;;34.97;20.10;;;1.40;1.00;;;;;;6258853;28;20357;-55
2023/01/25 15:10:55;;;;;;;38.07;21.80;;;1.30;1.00;;;;;;6252953;28;20230;-53
2023/01/25 15:14:01;;;;;;;34.33;20.97;;;1.40;1.00;;;;;;6255327;28;20703;-54
2023/01/25 15:17:04;;;;;;;31.80;20.00;;;1.40;1.00;;;;;;6254059;28;20231;-54
2023/01/25 15:20:27;;;;;;;33.23;18.13;;;1.30;1.00;;;;;;6251392;28;20425;-55
2023/01/25 15:23:31;;;;;;;32.17;20.40;;;1.00;1.00;;;;;;6256504;28;20249;-56
2023/01/25 15:26:36;;;;;;;31.47;18.83;;;1.20;1.00;;;;;;6259129;28;20241;-54
2023/01/25 15:29:40;;;;;;;32.80;20.47;;;1.10;1.00;;;;;;6258725;28;20245;-54
2023/01/25 15:32:43;;;;;;;36.20;20.33;;;1.20;1.00;;;;;;6268776;28;20916;-55
2023/01/25 15:35:47;;;;;;;45.03;25.23;;;1.20;1.00;;;;;;6257027;28;20238;-55
2023/01/25 15:38:50;;;;;;;38.40;22.40;;;1.30;1.00;;;;;;6246236;28;20229;-55
2023/01/25 15:41:54;;;;;;;37.43;21.07;;;1.40;1.00;;;;;;6258831;28;20604;-54
2023/01/25 15:44:57;;;;;;;35.43;21.43;;;1.50;1.00;;;;;;6250106;28;20238;-54
2023/01/25 15:48:00;;;;;;;36.10;20.17;;;1.60;1.00;;;;;;6257877;28;20390;-55
2023/01/25 15:51:04;;;;;;;33.60;20.37;;;1.50;1.00;;;;;;6257993;28;20805;-56
2023/01/25 15:54:08;;;;;;;34.73;20.70;;;1.50;1.00;;;;;;6248039;28;20609;-55
2023/01/25 15:57:29;;;;;;;35.33;21.10;;;1.70;1.00;;;;;;6258388;28;20230;-54
2023/01/25 16:00:32;;;;;;;34.73;20.73;;;1.50;1.00;;;;;;6259678;28;20903;-55
2023/01/25 16:03:35;;;;;;;37.93;20.47;;;1.50;1.00;;;;;;6260784;28;20580;-55
2023/01/25 16:06:41;;;;;;;35.63;19.80;;;1.60;1.00;;;;;;6269287;28;20243;-55
2023/01/25 16:09:44;;;;;;;34.00;18.93;;;1.40;1.00;;;;;;6252500;28;20317;-53
2023/01/25 16:12:49;;;;;;;28.97;18.70;;;1.30;1.00;;;;;;6252481;28;20417;-54
2023/01/25 16:15:55;;;;;;;39.47;19.77;;;1.60;1.00;;;;;;6258329;28;20238;-55
2023/01/25 16:19:00;;;;;;;32.00;18.93;;;1.20;1.00;;;;;;6250248;28;20262;-54
2023/01/25 16:22:03;;;;;;;30.13;18.50;;;1.50;1.00;;;;;;6258187;28;20230;-54